createdAt,value
2018-09-18T00:01:45.683Z,15.27
2018-09-18T00:04:14.361Z,14.53
2018-09-18T00:06:43.044Z,15.13
2018-09-18T00:09:12.155Z,16.10
2018-09-18T00:11:40.831Z,15.60
2018-09-18T00:14:09.434Z,16.10
2018-09-18T00:16:38.072Z,16.27
2018-09-18T00:19:06.912Z,16.13
2018-09-18T00:21:35.619Z,13.50
2018-09-18T00:24:04.197Z,14.57
2018-09-18T00:26:32.794Z,14.43
2018-09-18T00:29:01.541Z,15.10
2018-09-18T00:31:30.117Z,14.60
2018-09-18T00:33:58.735Z,12.83
2018-09-18T00:36:27.307Z,13.73
2018-09-18T00:38:55.896Z,14.43
2018-09-18T00:41:24.541Z,10.83
2018-09-18T00:43:53.167Z,16.77
2018-09-18T00:46:21.739Z,12.63
2018-09-18T00:48:50.318Z,14.13
2018-09-18T00:51:19.064Z,15.93
2018-09-18T00:53:48.250Z,12.43
2018-09-18T00:56:16.836Z,12.90
2018-09-18T00:58:45.422Z,12.30
2018-09-18T01:01:14.114Z,13.07
2018-09-18T01:03:42.806Z,14.60
2018-09-18T01:06:11.770Z,12.10
2018-09-18T01:08:40.494Z,12.47
2018-09-18T01:11:09.106Z,12.43
2018-09-18T01:13:37.878Z,10.47
2018-09-18T01:16:06.758Z,10.00
2018-09-18T01:18:39.328Z,13.53
2018-09-18T01:21:07.979Z,13.13
2018-09-18T01:23:36.591Z,11.73
2018-09-18T01:26:05.420Z,11.97
2018-09-18T01:28:34.766Z,10.93
2018-09-18T01:31:03.651Z,12.50
2018-09-18T01:33:32.289Z,11.60
2018-09-18T01:36:01.304Z,11.97
2018-09-18T01:38:29.967Z,16.00
2018-09-18T01:40:58.663Z,8.73
2018-09-18T01:43:27.317Z,11.87
2018-09-18T01:45:55.981Z,10.43
2018-09-18T01:48:24.602Z,12.70
2018-09-18T01:50:53.344Z,12.67
2018-09-18T01:53:22.078Z,10.23
2018-09-18T01:55:50.788Z,11.77
2018-09-18T01:58:19.492Z,13.83
2018-09-18T02:00:48.204Z,9.80
2018-09-18T02:03:16.718Z,12.23
2018-09-18T02:05:45.347Z,11.40
2018-09-18T02:08:14.037Z,9.83
2018-09-18T02:10:42.691Z,14.27
2018-09-18T02:13:11.320Z,12.13
2018-09-18T02:15:40.038Z,9.30
2018-09-18T02:18:08.667Z,9.93
2018-09-18T02:20:37.295Z,8.60
2018-09-18T02:23:06.732Z,10.13
2018-09-18T02:25:35.420Z,10.53
2018-09-18T02:28:04.072Z,8.43
2018-09-18T02:30:32.720Z,9.77
2018-09-18T02:33:01.973Z,9.43
2018-09-18T02:35:30.629Z,8.63
2018-09-18T02:37:59.220Z,11.00
2018-09-18T02:40:27.827Z,10.07
2018-09-18T02:42:56.410Z,10.03
2018-09-18T02:45:25.039Z,12.23
2018-09-18T02:47:53.737Z,10.10
2018-09-18T02:50:22.293Z,9.17
2018-09-18T02:52:50.911Z,10.63
2018-09-18T02:55:19.505Z,8.37
2018-09-18T02:57:48.238Z,8.53
2018-09-18T03:00:16.891Z,11.03
2018-09-18T03:02:45.519Z,10.77
2018-09-18T03:05:14.160Z,9.23
2018-09-18T03:07:42.790Z,8.20
2018-09-18T03:10:11.425Z,10.30
2018-09-18T03:12:40.002Z,10.10
2018-09-18T03:15:08.599Z,10.67
2018-09-18T03:17:37.269Z,9.03
2018-09-18T03:20:06.140Z,9.37
2018-09-18T03:22:34.791Z,9.17
2018-09-18T03:25:03.445Z,10.97
2018-09-18T03:27:32.105Z,9.67
2018-09-18T03:30:00.717Z,8.80
2018-09-18T03:32:29.306Z,7.13
2018-09-18T03:34:57.947Z,8.67
2018-09-18T03:37:26.631Z,8.90
2018-09-18T03:39:55.250Z,7.97
2018-09-18T03:42:23.845Z,8.10
2018-09-18T03:44:52.502Z,8.03
2018-09-18T03:47:21.855Z,8.37
2018-09-18T03:49:51.746Z,8.97
2018-09-18T03:52:20.374Z,13.37
2018-09-18T03:54:49.497Z,10.47
2018-09-18T03:57:18.190Z,9.70
2018-09-18T03:59:46.853Z,7.93
2018-09-18T04:02:15.637Z,13.07
2018-09-18T04:04:44.331Z,8.03
2018-09-18T04:07:13.941Z,11.27
2018-09-18T04:09:42.617Z,12.17
2018-09-18T04:12:11.337Z,9.63
2018-09-18T04:14:40.033Z,9.60
2018-09-18T04:17:08.636Z,10.10
2018-09-18T04:19:37.289Z,10.63
2018-09-18T04:22:05.930Z,10.40
2018-09-18T04:24:34.515Z,9.27
2018-09-18T04:27:03.214Z,11.23
2018-09-18T04:29:31.871Z,10.50
2018-09-18T04:32:00.856Z,10.50
2018-09-18T04:34:29.578Z,10.73
2018-09-18T04:36:58.295Z,9.47
2018-09-18T04:39:27.047Z,10.37
2018-09-18T04:41:55.686Z,8.57
2018-09-18T04:44:24.342Z,7.23
2018-09-18T04:46:53.142Z,9.77
2018-09-18T04:49:21.857Z,10.53
2018-09-18T04:51:50.450Z,10.97
2018-09-18T04:54:19.099Z,12.13
2018-09-18T04:56:47.755Z,9.93
2018-09-18T04:59:16.377Z,8.90
2018-09-18T05:01:45.224Z,10.83
2018-09-18T05:04:13.944Z,9.03
2018-09-18T05:06:42.585Z,10.20
2018-09-18T05:09:11.674Z,9.47
2018-09-18T05:11:40.793Z,8.10
2018-09-18T05:14:09.438Z,11.20
2018-09-18T05:16:38.032Z,9.07
2018-09-18T05:19:06.676Z,12.77
2018-09-18T05:21:35.248Z,12.87
2018-09-18T05:24:04.046Z,9.87
2018-09-18T05:26:32.692Z,10.77
2018-09-18T05:29:01.438Z,10.90
2018-09-18T05:31:30.121Z,7.97
2018-09-18T05:33:58.788Z,9.07
2018-09-18T05:36:27.413Z,9.10
2018-09-18T05:38:56.704Z,9.00
2018-09-18T05:41:25.455Z,10.13
2018-09-18T05:43:54.133Z,11.90
2018-09-18T05:46:22.831Z,9.00
2018-09-18T05:48:51.517Z,9.97
2018-09-18T05:51:20.219Z,14.30
2018-09-18T05:53:48.840Z,10.97
2018-09-18T05:56:17.572Z,10.23
2018-09-18T05:58:46.471Z,10.30
2018-09-18T06:01:16.167Z,10.23
2018-09-18T06:03:44.796Z,8.87
2018-09-18T06:06:13.516Z,11.83
2018-09-18T06:08:42.132Z,11.40
2018-09-18T06:11:10.774Z,8.87
2018-09-18T06:13:39.411Z,11.53
2018-09-18T06:16:08.062Z,15.43
2018-09-18T06:18:36.746Z,8.93
2018-09-18T06:21:05.755Z,11.87
2018-09-18T06:23:34.379Z,10.10
2018-09-18T06:26:03.073Z,9.50
2018-09-18T06:28:31.658Z,11.00
2018-09-18T06:31:00.315Z,10.43
2018-09-18T06:33:28.955Z,11.10
2018-09-18T06:35:57.610Z,9.40
2018-09-18T06:38:26.255Z,8.97
2018-09-18T06:40:54.829Z,10.03
2018-09-18T06:43:23.517Z,13.13
2018-09-18T06:45:52.189Z,10.47
2018-09-18T06:48:20.895Z,11.07
2018-09-18T06:50:49.583Z,9.93
2018-09-18T06:53:18.165Z,11.97
2018-09-18T06:55:46.870Z,11.07
2018-09-18T06:58:15.512Z,13.37
2018-09-18T07:00:44.112Z,9.60
2018-09-18T07:03:12.764Z,16.03
2018-09-18T07:05:41.410Z,9.57
2018-09-18T07:08:10.056Z,13.23
2018-09-18T07:10:38.648Z,12.57
2018-09-18T07:13:07.220Z,11.90
2018-09-18T07:15:35.753Z,13.03
2018-09-18T07:18:04.511Z,12.60
2018-09-18T07:20:33.081Z,11.80
2018-09-18T07:23:01.714Z,12.13
2018-09-18T07:25:30.407Z,12.97
2018-09-18T07:27:59.008Z,12.17
2018-09-18T07:30:27.831Z,11.17
2018-09-18T07:32:56.449Z,11.20
2018-09-18T07:35:25.093Z,14.13
2018-09-18T07:37:53.692Z,12.80
2018-09-18T07:40:22.448Z,14.60
2018-09-18T07:42:51.152Z,13.07
2018-09-18T07:45:19.836Z,12.73
2018-09-18T07:47:48.587Z,11.80
2018-09-18T07:50:17.196Z,13.10
2018-09-18T07:52:45.820Z,14.10
2018-09-18T07:55:14.433Z,13.13
2018-09-18T07:57:43.037Z,14.30
2018-09-18T08:00:11.698Z,9.83
2018-09-18T08:02:40.281Z,12.27
2018-09-18T08:05:08.883Z,13.30
2018-09-18T08:07:37.477Z,12.90
2018-09-18T08:10:06.788Z,12.80
2018-09-18T08:12:35.564Z,12.70
2018-09-18T08:15:04.260Z,10.20
2018-09-18T08:17:32.958Z,12.43
2018-09-18T08:20:01.590Z,10.23
2018-09-18T08:22:30.199Z,10.27
2018-09-18T08:24:58.785Z,9.00
2018-09-18T08:27:27.407Z,7.97
2018-09-18T08:29:55.985Z,7.57
2018-09-18T08:32:24.661Z,8.53
2018-09-18T08:34:53.317Z,9.40
2018-09-18T08:37:21.927Z,10.80
2018-09-18T08:39:50.580Z,8.13
2018-09-18T08:42:19.279Z,9.60
2018-09-18T08:44:47.862Z,10.97
2018-09-18T08:47:16.609Z,9.07
2018-09-18T08:49:45.192Z,13.00
2018-09-18T08:52:13.815Z,8.73
2018-09-18T08:54:42.462Z,12.07
2018-09-18T08:57:11.216Z,8.93
2018-09-18T08:59:39.866Z,7.97
2018-09-18T09:02:08.501Z,12.07
2018-09-18T09:04:37.177Z,7.60
2018-09-18T09:07:05.886Z,10.30
2018-09-18T09:09:35.497Z,10.37
2018-09-18T09:12:04.039Z,7.23
2018-09-18T09:14:32.831Z,8.83
2018-09-18T09:17:01.430Z,8.40
2018-09-18T09:19:30.220Z,9.53
2018-09-18T09:21:59.066Z,9.00
2018-09-18T09:24:27.782Z,8.07
2018-09-18T09:26:56.437Z,8.83
2018-09-18T09:29:25.050Z,8.50
2018-09-18T09:31:53.744Z,8.33
2018-09-18T09:34:22.516Z,10.60
2018-09-18T09:36:51.257Z,8.27
2018-09-18T09:39:19.892Z,8.57
2018-09-18T09:41:48.576Z,10.50
2018-09-18T09:44:17.287Z,10.87
2018-09-18T09:46:45.906Z,9.03
2018-09-18T09:49:14.570Z,10.90
2018-09-18T09:51:43.396Z,8.33
2018-09-18T09:54:12.608Z,8.03
2018-09-18T09:56:41.272Z,8.63
2018-09-18T09:59:10.187Z,7.80
2018-09-18T10:01:47.786Z,9.53
2018-09-18T10:04:16.557Z,9.47
2018-09-18T10:06:45.954Z,10.73
2018-09-18T10:09:14.605Z,8.57
2018-09-18T10:11:43.316Z,9.50
2018-09-18T10:14:12.045Z,8.57
2018-09-18T10:16:40.776Z,6.73
2018-09-18T10:19:09.524Z,7.10
2018-09-18T10:21:38.877Z,12.17
2018-09-18T10:24:08.273Z,11.17
2018-09-18T10:26:37.183Z,9.27
2018-09-18T10:29:06.050Z,7.90
2018-09-18T10:31:34.806Z,11.63
2018-09-18T10:34:03.493Z,8.50
2018-09-18T10:36:32.256Z,9.83
2018-09-18T10:39:01.518Z,7.97
2018-09-18T10:41:30.428Z,7.07
2018-09-18T10:43:58.980Z,12.37
2018-09-18T10:46:27.652Z,7.70
2018-09-18T10:48:57.435Z,10.20
2018-09-18T10:51:26.411Z,8.73
2018-09-18T10:53:55.398Z,6.53
2018-09-18T10:56:24.152Z,6.87
2018-09-18T10:58:52.931Z,10.63
2018-09-18T11:01:21.666Z,7.00
2018-09-18T11:03:50.466Z,6.70
2018-09-18T11:06:19.154Z,6.03
2018-09-18T11:08:47.880Z,9.57
2018-09-18T11:11:16.512Z,6.77
2018-09-18T11:13:45.158Z,6.93
2018-09-18T11:16:14.000Z,8.17
2018-09-18T11:18:42.544Z,6.43
2018-09-18T11:21:12.072Z,7.87
2018-09-18T11:23:40.707Z,8.83
2018-09-18T11:26:09.379Z,6.17
2018-09-18T11:28:38.009Z,6.40
2018-09-18T11:31:06.706Z,6.97
2018-09-18T11:33:35.437Z,8.97
2018-09-18T11:36:04.275Z,6.70
2018-09-18T11:38:32.915Z,5.80
2018-09-18T11:41:01.581Z,7.10
2018-09-18T11:43:30.294Z,6.33
2018-09-18T11:45:59.170Z,5.23
2018-09-18T11:48:27.648Z,4.17
2018-09-18T11:50:56.405Z,4.57
2018-09-18T11:53:25.159Z,6.43
2018-09-18T11:55:53.884Z,5.77
2018-09-18T11:58:22.607Z,3.97
2018-09-18T12:00:51.270Z,8.37
2018-09-18T12:03:20.018Z,5.83
2018-09-18T12:05:48.850Z,6.57
2018-09-18T12:08:17.571Z,8.50
2018-09-18T12:10:46.267Z,8.37
2018-09-18T12:13:14.920Z,7.47
2018-09-18T12:15:43.594Z,9.17
2018-09-18T12:18:12.338Z,5.50
2018-09-18T12:20:41.042Z,7.60
2018-09-18T12:23:09.733Z,8.97
2018-09-18T12:25:38.453Z,9.90
2018-09-18T12:28:07.187Z,6.90
2018-09-18T12:30:35.961Z,6.10
2018-09-18T12:33:04.707Z,5.10
2018-09-18T12:35:33.565Z,7.10
2018-09-18T12:38:02.110Z,8.17
2018-09-18T12:40:30.760Z,5.40
2018-09-18T12:42:59.438Z,5.73
2018-09-18T12:45:28.088Z,8.03
2018-09-18T12:47:56.817Z,7.17
2018-09-18T12:50:25.502Z,6.50
2018-09-18T12:52:54.080Z,5.27
2018-09-18T12:55:22.622Z,5.57
2018-09-18T12:57:51.341Z,9.18
2018-09-18T13:00:20.080Z,6.22
2018-09-18T13:02:48.765Z,6.97
2018-09-18T13:05:17.448Z,7.72
2018-09-18T13:07:46.142Z,7.08
2018-09-18T13:10:14.903Z,7.97
2018-09-18T13:12:45.038Z,8.80
2018-09-18T13:15:13.706Z,10.40
2018-09-18T13:17:43.088Z,9.38
2018-09-18T13:20:11.686Z,14.50
2018-09-18T13:22:40.383Z,7.17
2018-09-18T13:25:09.092Z,8.48
2018-09-18T13:27:37.886Z,11.53
2018-09-18T13:30:07.066Z,7.35
2018-09-18T13:32:35.698Z,7.47
2018-09-18T13:35:04.369Z,7.67
2018-09-18T13:37:33.029Z,7.17
2018-09-18T13:40:01.690Z,8.53
2018-09-18T13:42:30.375Z,7.95
2018-09-18T13:44:59.567Z,7.08
2018-09-18T13:47:28.239Z,27.40
2018-09-18T13:49:56.993Z,11.53
2018-09-18T13:52:25.651Z,8.28
2018-09-18T13:54:54.297Z,13.48
2018-09-18T13:57:23.034Z,13.53
2018-09-18T13:59:51.794Z,10.68
2018-09-18T14:02:20.491Z,11.88
2018-09-18T14:04:49.838Z,12.15
2018-09-18T14:07:18.472Z,16.32
2018-09-18T14:09:48.066Z,16.60
2018-09-18T14:12:17.278Z,10.10
2018-09-18T14:14:46.829Z,9.98
2018-09-18T14:17:15.451Z,9.60
2018-09-18T14:19:44.125Z,10.48
2018-09-18T14:22:12.771Z,5.42
2018-09-18T14:24:41.480Z,8.03
2018-09-18T14:27:10.154Z,8.10
2018-09-18T14:29:38.883Z,10.88
2018-09-18T14:32:07.573Z,12.78
2018-09-18T14:34:36.261Z,11.40
2018-09-18T14:37:04.860Z,9.45
2018-09-18T14:39:33.683Z,11.12
2018-09-18T14:42:02.307Z,8.98
2018-09-18T14:44:30.986Z,9.95
2018-09-18T14:46:59.783Z,9.95
2018-09-18T14:49:28.303Z,10.32
2018-09-18T14:51:57.017Z,6.47
2018-09-18T14:54:25.719Z,9.85
2018-09-18T14:56:54.399Z,11.20
2018-09-18T14:59:23.906Z,9.65
2018-09-18T15:01:52.588Z,9.45
2018-09-18T15:04:21.300Z,11.85
2018-09-18T15:06:50.504Z,10.80
2018-09-18T15:09:19.488Z,10.53
2018-09-18T15:11:48.157Z,6.75
2018-09-18T15:14:16.823Z,8.30
2018-09-18T15:16:45.494Z,12.47
2018-09-18T15:19:14.144Z,15.35
2018-09-18T15:21:43.140Z,11.75
2018-09-18T15:24:12.801Z,8.23
2018-09-18T15:26:41.417Z,11.80
2018-09-18T15:29:10.092Z,8.90
2018-09-18T15:31:38.810Z,8.73
2018-09-18T15:34:07.624Z,10.32
2018-09-18T15:36:36.536Z,10.90
2018-09-18T15:39:07.136Z,9.78
2018-09-18T15:41:35.820Z,9.55
2018-09-18T15:44:04.516Z,12.18
2018-09-18T15:46:33.326Z,9.58
2018-09-18T15:49:02.035Z,10.40
2018-09-18T15:51:30.748Z,10.30
2018-09-18T15:53:59.408Z,12.25
2018-09-18T15:56:28.129Z,14.63
2018-09-18T15:58:56.795Z,9.75
2018-09-18T16:01:25.453Z,9.33
2018-09-18T16:03:54.191Z,10.88
2018-09-18T16:06:22.940Z,14.63
2018-09-18T16:08:51.771Z,17.23
2018-09-18T16:11:20.478Z,9.50
2018-09-18T16:13:49.933Z,12.35
2018-09-18T16:16:18.703Z,6.75
2018-09-18T16:18:47.314Z,11.48
2018-09-18T16:21:15.943Z,9.73
2018-09-18T16:23:44.572Z,12.10
2018-09-18T16:26:13.236Z,11.35
2018-09-18T16:28:41.959Z,8.83
2018-09-18T16:31:10.546Z,9.60
2018-09-18T16:33:39.243Z,9.90
2018-09-18T16:36:08.692Z,10.13
2018-09-18T16:38:37.525Z,11.30
2018-09-18T16:41:06.250Z,9.28
2018-09-18T16:43:35.266Z,11.90
2018-09-18T16:46:04.012Z,8.93
2018-09-18T16:48:32.747Z,10.57
2018-09-18T16:51:01.383Z,10.20
2018-09-18T16:53:30.020Z,9.87
2018-09-18T16:55:58.696Z,9.23
2018-09-18T16:58:27.432Z,9.93
2018-09-18T17:00:56.050Z,9.37
2018-09-18T17:03:24.690Z,10.20
2018-09-18T17:05:53.385Z,12.33
2018-09-18T17:08:22.000Z,8.97
2018-09-18T17:10:50.576Z,12.87
2018-09-18T17:13:20.158Z,10.07
2018-09-18T17:15:48.795Z,7.80
2018-09-18T17:18:17.436Z,8.93
2018-09-18T17:20:46.075Z,9.13
2018-09-18T17:23:14.697Z,10.20
2018-09-18T17:25:43.381Z,10.83
2018-09-18T17:28:12.035Z,9.17
2018-09-18T17:30:41.530Z,12.40
2018-09-18T17:33:10.111Z,11.07
2018-09-18T17:35:38.943Z,12.87
2018-09-18T17:38:07.635Z,16.83
2018-09-18T17:40:36.306Z,15.30
2018-09-18T17:43:05.076Z,9.87
2018-09-18T17:45:33.664Z,9.07
2018-09-18T17:48:02.389Z,12.03
2018-09-18T17:50:31.103Z,12.10
2018-09-18T17:52:59.758Z,13.83
2018-09-18T17:55:28.455Z,16.57
2018-09-18T17:57:57.088Z,10.20
2018-09-18T18:00:25.892Z,10.27
2018-09-18T18:02:54.606Z,14.23
2018-09-18T18:05:23.334Z,13.83
2018-09-18T18:07:51.898Z,13.40
2018-09-18T18:10:20.512Z,10.37
2018-09-18T18:12:49.200Z,12.33
2018-09-18T18:15:17.809Z,13.77
2018-09-18T18:17:46.443Z,11.17
2018-09-18T18:20:15.125Z,11.50
2018-09-18T18:22:43.672Z,13.97
2018-09-18T18:25:12.368Z,13.07
2018-09-18T18:27:40.993Z,10.20
2018-09-18T18:30:09.613Z,14.33
2018-09-18T18:32:38.272Z,12.70
2018-09-18T18:35:06.945Z,14.40
2018-09-18T18:37:35.758Z,14.67
2018-09-18T18:40:04.521Z,15.97
2018-09-18T18:42:33.208Z,14.87
2018-09-18T18:45:01.880Z,13.67
2018-09-18T18:47:30.692Z,15.27
2018-09-18T18:49:59.276Z,12.80
2018-09-18T18:52:27.994Z,14.63
2018-09-18T18:54:56.612Z,15.23
2018-09-18T18:57:25.271Z,14.93
2018-09-18T18:59:54.294Z,13.97
2018-09-18T19:02:23.072Z,14.60
2018-09-18T19:04:51.693Z,15.83
2018-09-18T19:07:20.331Z,14.23
2018-09-18T19:09:49.038Z,14.50
2018-09-18T19:12:17.675Z,16.93
2018-09-18T19:14:46.313Z,15.87
2018-09-18T19:17:14.989Z,16.00
2018-09-18T19:19:43.653Z,13.90
2018-09-18T19:22:12.260Z,10.43
2018-09-18T19:24:40.924Z,15.07
2018-09-18T19:27:09.651Z,15.30
2018-09-18T19:29:38.321Z,15.13
2018-09-18T19:32:07.051Z,11.47
2018-09-18T19:34:35.695Z,13.03
2018-09-18T19:37:04.404Z,14.43
2018-09-18T19:39:33.010Z,13.57
2018-09-18T19:42:01.652Z,14.10
2018-09-18T19:44:30.308Z,15.87
2018-09-18T19:46:59.100Z,10.53
2018-09-18T19:49:27.776Z,13.77
2018-09-18T19:51:56.372Z,16.00
2018-09-18T19:54:25.065Z,12.17
2018-09-18T19:56:53.730Z,12.40
2018-09-18T19:59:22.571Z,16.17
2018-09-18T20:01:51.347Z,15.87
2018-09-18T20:04:19.977Z,16.73
2018-09-18T20:06:48.740Z,13.63
2018-09-18T20:09:17.329Z,12.33
2018-09-18T20:11:46.016Z,16.37
2018-09-18T20:14:14.706Z,14.70
2018-09-18T20:16:43.429Z,18.80
2018-09-18T20:19:12.105Z,16.13
2018-09-18T20:21:40.820Z,18.27
2018-09-18T20:24:09.506Z,17.10
2018-09-18T20:26:38.136Z,18.13
2018-09-18T20:29:06.941Z,16.80
2018-09-18T20:31:35.697Z,10.83
2018-09-18T20:34:04.429Z,12.83
2018-09-18T20:36:33.175Z,12.27
2018-09-18T20:39:02.008Z,14.93
2018-09-18T20:41:30.663Z,14.50
2018-09-18T20:43:59.303Z,16.40
2018-09-18T20:46:28.017Z,16.70
2018-09-18T20:48:56.688Z,14.50
2018-09-18T20:51:25.283Z,13.63
2018-09-18T20:53:53.945Z,18.33
2018-09-18T20:56:22.550Z,14.10
2018-09-18T20:58:51.188Z,12.93
2018-09-18T21:01:19.863Z,13.63
2018-09-18T21:03:48.525Z,14.73
2018-09-18T21:06:17.104Z,13.70
2018-09-18T21:08:45.796Z,12.77
2018-09-18T21:11:14.403Z,16.73
2018-09-18T21:13:43.037Z,12.43
2018-09-18T21:16:11.712Z,13.37
2018-09-18T21:18:40.337Z,15.40
2018-09-18T21:21:09.047Z,21.37
2018-09-18T21:23:37.713Z,18.13
2018-09-18T21:26:09.713Z,11.70
2018-09-18T21:28:38.431Z,13.97
2018-09-18T21:31:07.159Z,19.97
2018-09-18T21:33:35.839Z,13.70
2018-09-18T21:36:04.591Z,14.53
2018-09-18T21:38:33.256Z,13.53
2018-09-18T21:41:01.901Z,12.47
2018-09-18T21:43:31.152Z,16.73
2018-09-18T21:46:01.527Z,12.53
2018-09-18T21:48:30.232Z,14.80
2018-09-18T21:50:58.836Z,12.37
2018-09-18T21:53:27.568Z,14.07
2018-09-18T21:55:56.171Z,14.43
2018-09-18T21:58:24.810Z,12.47
2018-09-18T22:00:53.451Z,13.67
2018-09-18T22:03:22.088Z,17.47
2018-09-18T22:05:50.712Z,16.17
2018-09-18T22:08:19.470Z,16.43
2018-09-18T22:10:48.074Z,20.37
2018-09-18T22:13:16.751Z,14.83
2018-09-18T22:15:45.401Z,15.40
2018-09-18T22:18:14.016Z,13.90
2018-09-18T22:20:42.696Z,10.60
2018-09-18T22:23:11.486Z,9.87
2018-09-18T22:25:40.147Z,11.53
2018-09-18T22:28:08.855Z,11.23
2018-09-18T22:30:37.599Z,7.63
2018-09-18T22:33:07.182Z,9.03
2018-09-18T22:35:36.008Z,11.10
2018-09-18T22:38:04.978Z,10.50
2018-09-18T22:40:33.632Z,14.40
2018-09-18T22:43:02.272Z,12.13
2018-09-18T22:45:30.975Z,10.13
2018-09-18T22:47:59.690Z,12.97
2018-09-18T22:50:29.193Z,11.40
2018-09-18T22:52:57.892Z,8.60
2018-09-18T22:55:26.559Z,8.90
2018-09-18T22:57:55.231Z,9.80
2018-09-18T23:00:23.939Z,9.07
2018-09-18T23:02:52.593Z,11.47
2018-09-18T23:05:21.313Z,9.63
2018-09-18T23:07:50.059Z,8.70
2018-09-18T23:10:18.798Z,9.30
2018-09-18T23:12:47.503Z,12.67
2018-09-18T23:15:16.198Z,10.67
2018-09-18T23:17:44.864Z,14.87
2018-09-18T23:20:13.598Z,13.33
2018-09-18T23:22:42.308Z,16.70
2018-09-18T23:25:10.881Z,14.00
2018-09-18T23:27:39.513Z,16.87
2018-09-18T23:30:08.204Z,15.90
2018-09-18T23:32:36.878Z,13.40
2018-09-18T23:35:05.576Z,16.87
2018-09-18T23:37:34.281Z,16.33
2018-09-18T23:40:02.989Z,14.47
2018-09-18T23:42:31.669Z,11.90
2018-09-18T23:45:00.291Z,12.90
2018-09-18T23:47:28.995Z,13.60
2018-09-18T23:49:57.694Z,14.70
2018-09-18T23:52:26.372Z,13.33
2018-09-18T23:54:55.123Z,13.33
2018-09-18T23:57:23.748Z,11.97
2018-09-18T23:59:52.531Z,14.40
